ABV82V EGHH-EINN
Flight info
| Callsign | ABV82V |
|---|---|
| Flight time | 1h 0m |
| Altitude | 34000 |
| Route | SAM DCT DIQSE DCT TIPUR TIPUR2E |
| Aircraft | B738/M-SDE2E3FGHIRWXY/LB1 |
Departure
| Time | 2026-04-28 18:06 |
|---|---|
| Airport | Bournemouth Airport (EGHH) |
Arrival
| Time | 2026-04-28 19:06 |
|---|---|
| Airport | Shannon Airport (EINN) |
| Time | Latitude | Longitude | Altitude | Speed | Heading |
|---|---|---|---|---|---|
| 2026-04-28 17:41 | 50.77774 | -1.83543 | 45 ft | 0 kts | 267° |
| 2026-04-28 17:56 | 50.77775 | -1.83535 | 45 ft | 4 kts | 265° |
| 2026-04-28 17:56 | 50.77780 | -1.83495 | 45 ft | 4 kts | 237° |
| 2026-04-28 17:57 | 50.77798 | -1.83470 | 40 ft | 4 kts | 188° |
| 2026-04-28 17:57 | 50.77805 | -1.83468 | 42 ft | 0 kts | 178° |
| 2026-04-28 17:59 | 50.77787 | -1.83467 | 40 ft | 11 kts | 176° |
| 2026-04-28 17:59 | 50.77698 | -1.83474 | 45 ft | 13 kts | 186° |
| 2026-04-28 17:59 | 50.77611 | -1.83494 | 44 ft | 13 kts | 202° |
| 2026-04-28 18:00 | 50.77576 | -1.83609 | 45 ft | 12 kts | 265° |
| 2026-04-28 18:00 | 50.77578 | -1.83743 | 45 ft | 12 kts | 272° |
| 2026-04-28 18:00 | 50.77586 | -1.83871 | 45 ft | 12 kts | 278° |
| 2026-04-28 18:00 | 50.77603 | -1.83995 | 45 ft | 11 kts | 283° |
| 2026-04-28 18:01 | 50.77622 | -1.84114 | 45 ft | 11 kts | 284° |
| 2026-04-28 18:01 | 50.77644 | -1.84229 | 43 ft | 11 kts | 288° |
| 2026-04-28 18:01 | 50.77685 | -1.84424 | 42 ft | 25 kts | 286° |
| 2026-04-28 18:01 | 50.77719 | -1.84679 | 45 ft | 20 kts | 282° |
| 2026-04-28 18:02 | 50.77734 | -1.84766 | 45 ft | 5 kts | 288° |
| 2026-04-28 18:02 | 50.77736 | -1.84779 | 45 ft | 0 kts | 290° |
| 2026-04-28 18:03 | 50.77777 | -1.84906 | 45 ft | 16 kts | 298° |
| 2026-04-28 18:03 | 50.77831 | -1.85060 | 47 ft | 19 kts | 299° |
| 2026-04-28 18:03 | 50.77837 | -1.85274 | 44 ft | 20 kts | 255° |
| 2026-04-28 18:04 | 50.77802 | -1.85484 | 47 ft | 20 kts | 255° |
| 2026-04-28 18:04 | 50.77746 | -1.85688 | 45 ft | 15 kts | 215° |
| 2026-04-28 18:04 | 50.77739 | -1.85780 | 45 ft | 13 kts | 17° |
| 2026-04-28 18:04 | 50.77771 | -1.85674 | 44 ft | 8 kts | 75° |
| 2026-04-28 18:05 | 50.77773 | -1.85663 | 44 ft | 0 kts | 75° |
| 2026-04-28 18:05 | 50.77776 | -1.85645 | 45 ft | 16 kts | 75° |
| 2026-04-28 18:05 | 50.77890 | -1.84960 | 47 ft | 111 kts | 75° |
| 2026-04-28 18:06 | 50.78148 | -1.83389 | 244 ft | 173 kts | 71° |
| 2026-04-28 18:06 | 50.78472 | -1.81404 | 949 ft | 198 kts | 73° |
| 2026-04-28 18:06 | 50.78878 | -1.79249 | 1918 ft | 212 kts | 59° |
| 2026-04-28 18:06 | 50.79700 | -1.77247 | 2732 ft | 228 kts | 56° |
| 2026-04-28 18:07 | 50.80537 | -1.75124 | 2981 ft | 231 kts | 58° |
| 2026-04-28 18:07 | 50.81378 | -1.72916 | 3052 ft | 233 kts | 57° |
| 2026-04-28 18:07 | 50.82196 | -1.70758 | 3609 ft | 232 kts | 58° |
| 2026-04-28 18:07 | 50.83016 | -1.68548 | 4121 ft | 234 kts | 60° |
| 2026-04-28 18:08 | 50.83843 | -1.66313 | 4654 ft | 238 kts | 61° |
| 2026-04-28 18:08 | 50.84683 | -1.64050 | 4982 ft | 239 kts | 62° |
| 2026-04-28 18:08 | 50.85526 | -1.61773 | 5000 ft | 240 kts | 62° |
| 2026-04-28 18:08 | 50.86369 | -1.59491 | 5009 ft | 241 kts | 62° |
| 2026-04-28 18:09 | 50.87213 | -1.57203 | 5046 ft | 238 kts | 62° |
| 2026-04-28 18:09 | 50.88028 | -1.54987 | 5585 ft | 240 kts | 63° |
| 2026-04-28 18:09 | 50.88879 | -1.52670 | 6097 ft | 246 kts | 62° |
| 2026-04-28 18:09 | 50.89747 | -1.50302 | 6609 ft | 252 kts | 63° |
| 2026-04-28 18:10 | 50.90631 | -1.47892 | 7110 ft | 255 kts | 62° |
| 2026-04-28 18:10 | 50.91523 | -1.45462 | 7611 ft | 256 kts | 62° |
| 2026-04-28 18:10 | 50.92416 | -1.43023 | 8124 ft | 256 kts | 62° |
| 2026-04-28 18:10 | 50.93309 | -1.40583 | 8623 ft | 256 kts | 62° |
| 2026-04-28 18:11 | 50.94200 | -1.38143 | 9163 ft | 257 kts | 63° |
| 2026-04-28 18:11 | 50.95171 | -1.35762 | 9676 ft | 261 kts | 50° |
| 2026-04-28 18:11 | 50.96673 | -1.34081 | 10182 ft | 269 kts | 29° |
| 2026-04-28 18:11 | 50.97864 | -1.33392 | 10492 ft | 271 kts | 21° |
| 2026-04-28 18:12 | 50.99697 | -1.32626 | 11035 ft | 281 kts | 19° |
| 2026-04-28 18:12 | 51.01615 | -1.31859 | 11562 ft | 287 kts | 19° |
| 2026-04-28 18:12 | 51.03549 | -1.31086 | 12104 ft | 286 kts | 19° |
| 2026-04-28 18:12 | 51.05499 | -1.30297 | 12644 ft | 286 kts | 19° |
| 2026-04-28 18:13 | 51.07431 | -1.29503 | 13170 ft | 289 kts | 19° |
| 2026-04-28 18:13 | 51.09382 | -1.28690 | 13202 ft | 296 kts | 20° |
| 2026-04-28 18:13 | 51.11393 | -1.27851 | 13214 ft | 294 kts | 19° |
| 2026-04-28 18:13 | 51.13338 | -1.27036 | 13232 ft | 291 kts | 19° |
| 2026-04-28 18:14 | 51.15298 | -1.26210 | 13905 ft | 298 kts | 20° |
| 2026-04-28 18:14 | 51.17362 | -1.25332 | 14539 ft | 316 kts | 19° |
| 2026-04-28 18:14 | 51.19546 | -1.24453 | 15179 ft | 333 kts | 16° |
| 2026-04-28 18:14 | 51.21924 | -1.24066 | 15837 ft | 352 kts | 7° |
| 2026-04-28 18:15 | 51.24416 | -1.23913 | 16494 ft | 366 kts | 7° |
| 2026-04-28 18:15 | 51.27009 | -1.23751 | 17170 ft | 377 kts | 7° |
| 2026-04-28 18:15 | 51.29674 | -1.24295 | 17807 ft | 402 kts | 346° |
| 2026-04-28 18:15 | 51.32157 | -1.26544 | 18532 ft | 422 kts | 326° |
| 2026-04-28 18:16 | 51.34231 | -1.29967 | 19120 ft | 439 kts | 310° |
| 2026-04-28 18:16 | 51.35886 | -1.34148 | 19771 ft | 448 kts | 304° |
| 2026-04-28 18:16 | 51.37449 | -1.38495 | 20389 ft | 454 kts | 303° |
| 2026-04-28 18:16 | 51.38998 | -1.42925 | 21022 ft | 459 kts | 304° |
| 2026-04-28 18:17 | 51.40569 | -1.47408 | 21669 ft | 462 kts | 305° |
| 2026-04-28 18:17 | 51.42163 | -1.51906 | 22344 ft | 465 kts | 306° |
| 2026-04-28 18:17 | 51.43775 | -1.56404 | 23046 ft | 466 kts | 306° |
| 2026-04-28 18:17 | 51.45397 | -1.60901 | 23725 ft | 467 kts | 307° |
| 2026-04-28 18:18 | 51.47027 | -1.65409 | 24332 ft | 467 kts | 307° |
| 2026-04-28 18:18 | 51.48661 | -1.69928 | 24920 ft | 467 kts | 307° |
| 2026-04-28 18:18 | 51.50285 | -1.74427 | 25521 ft | 467 kts | 307° |
| 2026-04-28 18:18 | 51.51361 | -1.77415 | 25928 ft | 466 kts | 307° |
| 2026-04-28 18:19 | 51.53527 | -1.83442 | 26759 ft | 464 kts | 307° |
| 2026-04-28 18:19 | 51.55133 | -1.87921 | 27398 ft | 462 kts | 307° |
| 2026-04-28 18:19 | 51.56729 | -1.92380 | 27997 ft | 460 kts | 307° |
| 2026-04-28 18:19 | 51.58319 | -1.96825 | 28656 ft | 457 kts | 308° |
| 2026-04-28 18:20 | 51.59878 | -2.01268 | 29327 ft | 457 kts | 305° |
| 2026-04-28 18:20 | 51.61103 | -2.06023 | 30023 ft | 463 kts | 295° |
| 2026-04-28 18:20 | 51.61863 | -2.11075 | 30667 ft | 468 kts | 284° |
| 2026-04-28 18:20 | 51.62234 | -2.16261 | 31283 ft | 464 kts | 281° |
| 2026-04-28 18:21 | 51.62528 | -2.21403 | 31886 ft | 459 kts | 280° |
| 2026-04-28 18:21 | 51.62820 | -2.26482 | 32505 ft | 453 kts | 280° |
| 2026-04-28 18:21 | 51.63137 | -2.31484 | 33141 ft | 446 kts | 281° |
| 2026-04-28 18:21 | 51.63469 | -2.36400 | 33776 ft | 438 kts | 281° |
| 2026-04-28 18:22 | 51.63804 | -2.41221 | 34413 ft | 429 kts | 283° |
| 2026-04-28 18:22 | 51.64389 | -2.45839 | 34932 ft | 413 kts | 293° |
| 2026-04-28 18:22 | 51.65240 | -2.50187 | 35509 ft | 402 kts | 294° |
| 2026-04-28 18:22 | 51.66102 | -2.54413 | 35964 ft | 396 kts | 294° |
| 2026-04-28 18:23 | 51.66973 | -2.58645 | 36102 ft | 400 kts | 294° |
| 2026-04-28 18:23 | 51.67845 | -2.62918 | 36280 ft | 402 kts | 294° |
| 2026-04-28 18:23 | 51.69596 | -2.71644 | 36326 ft | 418 kts | 293° |
| 2026-04-28 18:24 | 51.71083 | -2.79185 | 36330 ft | 431 kts | 292° |
| 2026-04-28 18:24 | 51.72302 | -2.85420 | 36443 ft | 442 kts | 292° |
| 2026-04-28 18:24 | 51.73230 | -2.90184 | 36449 ft | 449 kts | 292° |
| 2026-04-28 18:25 | 51.75132 | -2.99982 | 36439 ft | 463 kts | 292° |
| 2026-04-28 18:26 | 51.78053 | -3.15142 | 36401 ft | 479 kts | 293° |
| 2026-04-28 18:26 | 51.80044 | -3.25528 | 36392 ft | 489 kts | 292° |
| 2026-04-28 18:27 | 51.81651 | -3.36349 | 36358 ft | 506 kts | 280° |
| 2026-04-28 18:27 | 51.82191 | -3.47789 | 36336 ft | 515 kts | 279° |
| 2026-04-28 18:28 | 51.83113 | -3.59270 | 36341 ft | 514 kts | 287° |
| 2026-04-28 18:28 | 51.84616 | -3.70579 | 36329 ft | 515 kts | 288° |
| 2026-04-28 18:29 | 51.86140 | -3.81934 | 36326 ft | 517 kts | 287° |
| 2026-04-28 18:29 | 51.87612 | -3.93305 | 36319 ft | 514 kts | 287° |
| 2026-04-28 18:30 | 51.89029 | -4.04543 | 36327 ft | 506 kts | 287° |
| 2026-04-28 18:30 | 51.90416 | -4.15620 | 36346 ft | 505 kts | 287° |
| 2026-04-28 18:31 | 51.91807 | -4.26778 | 36338 ft | 505 kts | 287° |
| 2026-04-28 18:31 | 51.93188 | -4.37944 | 36340 ft | 506 kts | 287° |
| 2026-04-28 18:32 | 51.94555 | -4.49104 | 36337 ft | 505 kts | 287° |
| 2026-04-28 18:32 | 51.95913 | -4.60284 | 36310 ft | 506 kts | 287° |
| 2026-04-28 18:33 | 51.97266 | -4.71520 | 36340 ft | 506 kts | 287° |
| 2026-04-28 18:33 | 51.98604 | -4.82721 | 36347 ft | 506 kts | 287° |
| 2026-04-28 18:34 | 51.99934 | -4.93952 | 36332 ft | 506 kts | 287° |
| 2026-04-28 18:34 | 52.01249 | -5.05160 | 36345 ft | 505 kts | 286° |
| 2026-04-28 18:35 | 52.02554 | -5.16353 | 36348 ft | 505 kts | 286° |
| 2026-04-28 18:35 | 52.04303 | -5.27276 | 36359 ft | 497 kts | 295° |
| 2026-04-28 18:36 | 52.06531 | -5.37813 | 36357 ft | 496 kts | 295° |
| 2026-04-28 18:36 | 52.08750 | -5.48436 | 36360 ft | 497 kts | 295° |
| 2026-04-28 18:37 | 52.10897 | -5.59120 | 36364 ft | 497 kts | 294° |
| 2026-04-28 18:37 | 52.11965 | -5.64500 | 35827 ft | 504 kts | 294° |
| 2026-04-28 18:37 | 52.13056 | -5.70011 | 35076 ft | 504 kts | 295° |
| 2026-04-28 18:37 | 52.14110 | -5.75358 | 34382 ft | 502 kts | 295° |
| 2026-04-28 18:38 | 52.15191 | -5.80837 | 33588 ft | 500 kts | 295° |
| 2026-04-28 18:38 | 52.16234 | -5.86133 | 32906 ft | 496 kts | 295° |
| 2026-04-28 18:38 | 52.17290 | -5.91460 | 32203 ft | 494 kts | 295° |
| 2026-04-28 18:38 | 52.18350 | -5.96781 | 31559 ft | 494 kts | 294° |
| 2026-04-28 18:39 | 52.19417 | -6.02126 | 30922 ft | 496 kts | 294° |
| 2026-04-28 18:39 | 52.20486 | -6.07493 | 30281 ft | 501 kts | 294° |
| 2026-04-28 18:39 | 52.21560 | -6.12909 | 29548 ft | 502 kts | 294° |
| 2026-04-28 18:39 | 52.22629 | -6.18330 | 28839 ft | 501 kts | 294° |
| 2026-04-28 18:40 | 52.23688 | -6.23726 | 28151 ft | 500 kts | 294° |
| 2026-04-28 18:40 | 52.24747 | -6.29136 | 27474 ft | 499 kts | 293° |
| 2026-04-28 18:40 | 52.25799 | -6.34533 | 26820 ft | 498 kts | 293° |
| 2026-04-28 18:40 | 52.26853 | -6.39942 | 26181 ft | 503 kts | 293° |
| 2026-04-28 18:41 | 52.27911 | -6.45383 | 25517 ft | 501 kts | 293° |
| 2026-04-28 18:41 | 52.28951 | -6.50770 | 24895 ft | 493 kts | 293° |
| 2026-04-28 18:41 | 52.29970 | -6.56069 | 24288 ft | 486 kts | 293° |
| 2026-04-28 18:41 | 52.30975 | -6.61302 | 23630 ft | 480 kts | 293° |
| 2026-04-28 18:42 | 52.31969 | -6.66484 | 22929 ft | 475 kts | 293° |
| 2026-04-28 18:42 | 52.32953 | -6.71615 | 22244 ft | 471 kts | 292° |
| 2026-04-28 18:42 | 52.33925 | -6.76701 | 21551 ft | 467 kts | 292° |
| 2026-04-28 18:42 | 52.34891 | -6.81765 | 20888 ft | 464 kts | 292° |
| 2026-04-28 18:43 | 52.35846 | -6.86786 | 20250 ft | 461 kts | 292° |
| 2026-04-28 18:43 | 52.36795 | -6.91790 | 19622 ft | 459 kts | 292° |
| 2026-04-28 18:43 | 52.37735 | -6.96759 | 18994 ft | 456 kts | 292° |
| 2026-04-28 18:43 | 52.38669 | -7.01713 | 18346 ft | 453 kts | 291° |
| 2026-04-28 18:44 | 52.39591 | -7.06620 | 17651 ft | 449 kts | 291° |
| 2026-04-28 18:44 | 52.41394 | -7.16258 | 16554 ft | 436 kts | 291° |
| 2026-04-28 18:44 | 52.42272 | -7.20968 | 16045 ft | 430 kts | 291° |
| 2026-04-28 18:45 | 52.43139 | -7.25624 | 15567 ft | 425 kts | 291° |
| 2026-04-28 18:45 | 52.43998 | -7.30250 | 15070 ft | 422 kts | 291° |
| 2026-04-28 18:45 | 52.44847 | -7.34829 | 14596 ft | 420 kts | 291° |
| 2026-04-28 18:45 | 52.45694 | -7.39405 | 14100 ft | 418 kts | 290° |
| 2026-04-28 18:46 | 52.46534 | -7.43963 | 13577 ft | 416 kts | 290° |
| 2026-04-28 18:46 | 52.47368 | -7.48500 | 13045 ft | 415 kts | 290° |
| 2026-04-28 18:46 | 52.48197 | -7.53018 | 12531 ft | 413 kts | 290° |
| 2026-04-28 18:46 | 52.49018 | -7.57511 | 12027 ft | 411 kts | 290° |
| 2026-04-28 18:47 | 52.49835 | -7.61989 | 11516 ft | 408 kts | 290° |
| 2026-04-28 18:47 | 52.50643 | -7.66427 | 11130 ft | 402 kts | 289° |
| 2026-04-28 18:47 | 52.51431 | -7.70777 | 10900 ft | 395 kts | 289° |
| 2026-04-28 18:47 | 52.52218 | -7.75117 | 10657 ft | 397 kts | 289° |
| 2026-04-28 18:48 | 52.53005 | -7.79461 | 10422 ft | 398 kts | 289° |
| 2026-04-28 18:48 | 52.53790 | -7.83815 | 10167 ft | 396 kts | 289° |
| 2026-04-28 18:48 | 52.54569 | -7.88147 | 9900 ft | 395 kts | 289° |
| 2026-04-28 18:48 | 52.55343 | -7.92465 | 9633 ft | 394 kts | 289° |
| 2026-04-28 18:49 | 52.56115 | -7.96776 | 9377 ft | 393 kts | 289° |
| 2026-04-28 18:49 | 52.56365 | -7.98172 | 9291 ft | 392 kts | 289° |
| 2026-04-28 18:49 | 52.57648 | -8.05362 | 8847 ft | 390 kts | 288° |
| 2026-04-28 18:49 | 52.58404 | -8.09629 | 8586 ft | 388 kts | 287° |
| 2026-04-28 18:50 | 52.58775 | -8.14024 | 8300 ft | 391 kts | 267° |
| 2026-04-28 18:50 | 52.58302 | -8.18369 | 8087 ft | 381 kts | 258° |
| 2026-04-28 18:50 | 52.57770 | -8.22509 | 7818 ft | 368 kts | 259° |
| 2026-04-28 18:50 | 52.57261 | -8.26570 | 7562 ft | 357 kts | 259° |
| 2026-04-28 18:51 | 52.56776 | -8.30507 | 7305 ft | 347 kts | 259° |
| 2026-04-28 18:51 | 52.56302 | -8.34385 | 7060 ft | 338 kts | 259° |
| 2026-04-28 18:51 | 52.55853 | -8.38074 | 6857 ft | 329 kts | 259° |
| 2026-04-28 18:51 | 52.55412 | -8.41713 | 6643 ft | 321 kts | 259° |
| 2026-04-28 18:52 | 52.54980 | -8.45262 | 6433 ft | 313 kts | 259° |
| 2026-04-28 18:52 | 52.54559 | -8.48727 | 6231 ft | 306 kts | 259° |
| 2026-04-28 18:52 | 52.54146 | -8.52116 | 6006 ft | 300 kts | 259° |
| 2026-04-28 18:52 | 52.53740 | -8.55431 | 5792 ft | 293 kts | 259° |
| 2026-04-28 18:53 | 52.53341 | -8.58691 | 5592 ft | 288 kts | 259° |
| 2026-04-28 18:53 | 52.52948 | -8.61889 | 5386 ft | 284 kts | 259° |
| 2026-04-28 18:53 | 52.52558 | -8.65054 | 5180 ft | 280 kts | 259° |
| 2026-04-28 18:53 | 52.52179 | -8.68126 | 4958 ft | 268 kts | 259° |
| 2026-04-28 18:54 | 52.51817 | -8.71056 | 4762 ft | 256 kts | 259° |
| 2026-04-28 18:54 | 52.51469 | -8.73858 | 4621 ft | 244 kts | 259° |
| 2026-04-28 18:54 | 52.51136 | -8.76535 | 4470 ft | 234 kts | 259° |
| 2026-04-28 18:54 | 52.50818 | -8.79096 | 4323 ft | 225 kts | 259° |
| 2026-04-28 18:55 | 52.50507 | -8.81591 | 4188 ft | 222 kts | 259° |
| 2026-04-28 18:55 | 52.50298 | -8.83269 | 4114 ft | 221 kts | 259° |
| 2026-04-28 18:55 | 52.49990 | -8.85740 | 3980 ft | 222 kts | 259° |
| 2026-04-28 18:55 | 52.49676 | -8.88247 | 3890 ft | 227 kts | 259° |
| 2026-04-28 18:56 | 52.49355 | -8.90808 | 3759 ft | 231 kts | 259° |
| 2026-04-28 18:56 | 52.49033 | -8.93369 | 3630 ft | 226 kts | 259° |
| 2026-04-28 18:56 | 52.48717 | -8.95882 | 3493 ft | 223 kts | 259° |
| 2026-04-28 18:56 | 52.48404 | -8.98367 | 3357 ft | 222 kts | 260° |
| 2026-04-28 18:57 | 52.48091 | -9.00845 | 3229 ft | 222 kts | 259° |
| 2026-04-28 18:57 | 52.47775 | -9.03339 | 3107 ft | 225 kts | 259° |
| 2026-04-28 18:57 | 52.47455 | -9.05863 | 3025 ft | 226 kts | 259° |
| 2026-04-28 18:57 | 52.47145 | -9.08369 | 2975 ft | 222 kts | 264° |
| 2026-04-28 18:58 | 52.47347 | -9.10782 | 2969 ft | 212 kts | 303° |
| 2026-04-28 18:58 | 52.48294 | -9.12564 | 2998 ft | 209 kts | 324° |
| 2026-04-28 18:58 | 52.49445 | -9.14049 | 2988 ft | 211 kts | 327° |
| 2026-04-28 18:58 | 52.50616 | -9.15521 | 2979 ft | 213 kts | 327° |
| 2026-04-28 18:59 | 52.51791 | -9.17006 | 2976 ft | 213 kts | 326° |
| 2026-04-28 18:59 | 52.52960 | -9.18493 | 2976 ft | 212 kts | 326° |
| 2026-04-28 18:59 | 52.54125 | -9.19976 | 2975 ft | 212 kts | 327° |
| 2026-04-28 18:59 | 52.55402 | -9.20917 | 2984 ft | 199 kts | 2° |
| 2026-04-28 19:00 | 52.56634 | -9.20225 | 2986 ft | 188 kts | 42° |
| 2026-04-28 19:00 | 52.57573 | -9.18747 | 2978 ft | 184 kts | 46° |
| 2026-04-28 19:00 | 52.58439 | -9.17348 | 2976 ft | 165 kts | 48° |
| 2026-04-28 19:00 | 52.59151 | -9.15980 | 2974 ft | 153 kts | 52° |
| 2026-04-28 19:01 | 52.59793 | -9.14628 | 2983 ft | 148 kts | 53° |
| 2026-04-28 19:01 | 52.60409 | -9.13314 | 2922 ft | 139 kts | 53° |
| 2026-04-28 19:01 | 52.60964 | -9.12131 | 2725 ft | 123 kts | 54° |
| 2026-04-28 19:01 | 52.61469 | -9.11053 | 2574 ft | 116 kts | 54° |
| 2026-04-28 19:02 | 52.61964 | -9.09996 | 2434 ft | 117 kts | 54° |
| 2026-04-28 19:02 | 52.62459 | -9.08939 | 2258 ft | 115 kts | 53° |
| 2026-04-28 19:02 | 52.62953 | -9.07888 | 2110 ft | 117 kts | 53° |
| 2026-04-28 19:02 | 52.63460 | -9.06808 | 1953 ft | 119 kts | 55° |
| 2026-04-28 19:03 | 52.63954 | -9.05754 | 1778 ft | 114 kts | 55° |
| 2026-04-28 19:03 | 52.64442 | -9.04716 | 1659 ft | 115 kts | 54° |
| 2026-04-28 19:03 | 52.64926 | -9.03686 | 1498 ft | 114 kts | 55° |
| 2026-04-28 19:03 | 52.65405 | -9.02662 | 1355 ft | 110 kts | 53° |
| 2026-04-28 19:04 | 52.65877 | -9.01659 | 1207 ft | 109 kts | 54° |
| 2026-04-28 19:04 | 52.66353 | -9.00645 | 1060 ft | 115 kts | 55° |
| 2026-04-28 19:04 | 52.66856 | -8.99577 | 869 ft | 118 kts | 54° |
| 2026-04-28 19:04 | 52.67335 | -8.98516 | 695 ft | 109 kts | 53° |
| 2026-04-28 19:05 | 52.67809 | -8.97562 | 550 ft | 105 kts | 53° |
| 2026-04-28 19:05 | 52.68271 | -8.96567 | 412 ft | 111 kts | 52° |
| 2026-04-28 19:05 | 52.68757 | -8.95549 | 315 ft | 119 kts | 54° |
| 2026-04-28 19:05 | 52.69258 | -8.94485 | 122 ft | 114 kts | 52° |
| 2026-04-28 19:06 | 52.69727 | -8.93491 | 39 ft | 101 kts | 52° |
| 2026-04-28 19:06 | 52.69986 | -8.92943 | 35 ft | 78 kts | 52° |
| 2026-04-28 19:06 | 52.70299 | -8.92283 | 31 ft | 47 kts | 53° |
| 2026-04-28 19:06 | 52.70483 | -8.91887 | 29 ft | 41 kts | 52° |
| 2026-04-28 19:07 | 52.70648 | -8.91538 | 23 ft | 36 kts | 52° |
| 2026-04-28 19:07 | 52.70775 | -8.91256 | 25 ft | 25 kts | 68° |
| 2026-04-28 19:07 | 52.70697 | -8.91153 | 23 ft | 16 kts | 169° |
| 2026-04-28 19:07 | 52.70561 | -8.91109 | 22 ft | 21 kts | 169° |
| 2026-04-28 19:08 | 52.70421 | -8.91067 | 22 ft | 20 kts | 170° |
| 2026-04-28 19:08 | 52.70284 | -8.91025 | 23 ft | 20 kts | 169° |
| 2026-04-28 19:08 | 52.70153 | -8.91031 | 23 ft | 19 kts | 198° |
| 2026-04-28 19:08 | 52.70031 | -8.91100 | 22 ft | 18 kts | 199° |
| 2026-04-28 19:09 | 52.69888 | -8.91175 | 21 ft | 23 kts | 199° |
| 2026-04-28 19:09 | 52.69803 | -8.91227 | 22 ft | 10 kts | 200° |
| 2026-04-28 19:09 | 52.69739 | -8.91262 | 22 ft | 10 kts | 198° |
| 2026-04-28 19:09 | 52.69697 | -8.91299 | 21 ft | 6 kts | 238° |
| 2026-04-28 19:10 | 52.69722 | -8.91439 | 21 ft | 21 kts | 304° |
| 2026-04-28 19:10 | 52.69805 | -8.91635 | 21 ft | 21 kts | 305° |
| 2026-04-28 19:10 | 52.69812 | -8.91806 | 22 ft | 16 kts | 216° |
| 2026-04-28 19:10 | 52.69720 | -8.91911 | 21 ft | 16 kts | 214° |
| 2026-04-28 19:11 | 52.69632 | -8.92013 | 22 ft | 15 kts | 214° |
| 2026-04-28 19:11 | 52.69561 | -8.92094 | 22 ft | 5 kts | 215° |
| 2026-04-28 19:11 | 52.69557 | -8.92099 | 22 ft | 0 kts | 215° |